createdAt,value
2019-04-14T00:00:01.145Z,33.03
2019-04-14T00:02:51.386Z,43.20
2019-04-14T00:05:25.675Z,130.97
2019-04-14T00:07:58.877Z,58.40
2019-04-14T00:10:33.358Z,83.67
2019-04-14T00:13:06.876Z,36.20
2019-04-14T00:15:45.347Z,16.93
2019-04-14T00:18:17.233Z,14.80
2019-04-14T00:20:51.281Z,14.87
2019-04-14T00:23:26.161Z,39.00
2019-04-14T00:26:46.775Z,25.70
2019-04-14T00:29:20.064Z,28.30
2019-04-14T00:31:55.074Z,33.53
2019-04-14T00:35:08.244Z,40.10
2019-04-14T00:38:02.396Z,44.30
2019-04-14T00:40:43.331Z,26.23
2019-04-14T00:43:39.580Z,31.77
2019-04-14T00:46:35.745Z,28.40
2019-04-14T00:49:11.345Z,31.70
2019-04-14T00:51:46.084Z,33.63
2019-04-14T00:54:19.992Z,30.70
2019-04-14T00:56:54.168Z,29.37
2019-04-14T00:59:27.653Z,17.73
2019-04-14T01:02:01.320Z,87.47
2019-04-14T01:04:35.832Z,44.43
2019-04-14T01:07:13.038Z,25.00
2019-04-14T01:09:48.772Z,21.63
2019-04-14T01:12:32.182Z,18.00
2019-04-14T01:15:07.183Z,39.63
2019-04-14T01:17:43.787Z,36.00
2019-04-14T01:20:21.099Z,35.17
2019-04-14T01:22:55.297Z,39.43
2019-04-14T01:25:30.276Z,36.63
2019-04-14T01:28:06.845Z,23.90
2019-04-14T01:30:41.468Z,16.37
2019-04-14T01:33:16.254Z,24.63
2019-04-14T01:35:50.909Z,49.93
2019-04-14T01:38:27.693Z,26.67
2019-04-14T01:41:04.248Z,52.97
2019-04-14T01:43:38.589Z,37.23
2019-04-14T01:46:18.442Z,23.97
2019-04-14T01:48:49.612Z,38.37
2019-04-14T01:51:54.904Z,25.57
2019-04-14T01:54:47.359Z,17.40
2019-04-14T01:57:53.110Z,24.77
2019-04-14T02:00:53.446Z,17.90
2019-04-14T02:03:30.455Z,14.83
2019-04-14T02:06:04.921Z,17.43
2019-04-14T02:08:37.699Z,16.77
2019-04-14T02:11:12.043Z,21.50
2019-04-14T02:13:47.001Z,32.73
2019-04-14T02:16:32.240Z,22.40
2019-04-14T02:18:57.416Z,24.73
2019-04-14T02:21:32.927Z,14.73
2019-04-14T02:24:04.964Z,12.47
2019-04-14T02:26:43.713Z,10.67
2019-04-14T02:29:19.017Z,5.93
2019-04-14T02:32:32.561Z,7.30
2019-04-14T02:35:13.263Z,5.97
2019-04-14T02:40:08.221Z,6.97
2019-04-14T02:42:41.908Z,6.23
2019-04-14T02:45:19.485Z,9.97
2019-04-14T02:48:11.936Z,11.43
2019-04-14T02:50:22.968Z,8.93
2019-04-14T02:53:07.863Z,11.53
2019-04-14T02:55:46.819Z,10.30
2019-04-14T02:58:20.549Z,11.80
2019-04-14T03:00:47.999Z,11.43
2019-04-14T03:05:57.914Z,26.47
2019-04-14T03:08:34.524Z,46.37
2019-04-14T03:13:45.415Z,74.97
2019-04-14T03:16:25.864Z,30.30
2019-04-14T03:19:29.880Z,25.67
2019-04-14T03:22:30.374Z,23.53
2019-04-14T03:25:07.923Z,16.60
2019-04-14T03:31:20.006Z,14.87
2019-04-14T03:41:09.156Z,19.60
2019-04-14T03:43:39.302Z,11.47
2019-04-14T03:46:23.620Z,20.17
2019-04-14T03:48:58.497Z,22.43
2019-04-14T03:51:38.274Z,16.43
2019-04-14T03:53:58.685Z,41.47
2019-04-14T03:56:49.329Z,19.30
2019-04-14T03:59:24.388Z,29.53
2019-04-14T04:01:58.503Z,23.53
2019-04-14T04:04:33.654Z,22.07
2019-04-14T04:07:08.131Z,21.70
2019-04-14T04:09:51.944Z,15.33
2019-04-14T04:12:27.180Z,17.50
2019-04-14T04:15:01.851Z,11.87
2019-04-14T04:17:49.450Z,18.67
2019-04-14T04:20:41.613Z,35.57
2019-04-14T04:23:25.466Z,15.30
2019-04-14T04:26:27.846Z,30.77
2019-04-14T04:29:13.530Z,21.10
2019-04-14T04:32:09.969Z,22.17
2019-04-14T04:35:23.892Z,17.37
2019-04-14T04:38:24.936Z,17.37
2019-04-14T04:40:59.431Z,34.33
2019-04-14T04:43:34.054Z,31.43
2019-04-14T04:46:13.744Z,30.53
2019-04-14T04:48:59.112Z,39.40
2019-04-14T04:51:27.586Z,27.80
2019-04-14T04:54:03.846Z,24.40
2019-04-14T04:56:38.357Z,39.37
2019-04-14T04:59:12.657Z,59.80
2019-04-14T05:01:47.253Z,29.50
2019-04-14T05:04:22.036Z,33.97
2019-04-14T05:06:59.706Z,32.67
2019-04-14T05:09:51.817Z,42.17
2019-04-14T05:12:50.175Z,27.97
2019-04-14T05:15:44.969Z,35.67
2019-04-14T05:18:25.147Z,45.40
2019-04-14T05:20:59.514Z,48.33
2019-04-14T05:23:38.853Z,30.67
2019-04-14T05:26:13.947Z,30.07
2019-04-14T05:28:51.167Z,36.60
2019-04-14T05:31:27.748Z,44.83
2019-04-14T05:34:05.032Z,14.07
2019-04-14T05:36:41.064Z,23.03
2019-04-14T05:39:15.814Z,13.80
2019-04-14T05:42:00.351Z,24.70
2019-04-14T05:44:34.064Z,11.67
2019-04-14T05:47:11.135Z,31.90
2019-04-14T05:49:50.110Z,14.70
2019-04-14T05:52:21.393Z,47.53
2019-04-14T05:54:55.794Z,33.40
2019-04-14T05:57:32.780Z,19.93
2019-04-14T06:00:10.332Z,32.97
2019-04-14T06:02:48.396Z,23.93
2019-04-14T06:05:21.711Z,35.67
2019-04-14T06:08:18.044Z,23.77
2019-04-14T06:11:11.064Z,37.57
2019-04-14T06:13:45.042Z,16.83
2019-04-14T06:16:20.611Z,8.37
2019-04-14T06:18:54.605Z,29.87
2019-04-14T06:21:29.912Z,10.50
2019-04-14T06:24:04.050Z,28.60
2019-04-14T06:26:38.786Z,31.40
2019-04-14T06:29:12.399Z,18.70
2019-04-14T06:32:12.536Z,20.87
2019-04-14T06:35:10.458Z,28.87
2019-04-14T06:37:54.962Z,24.10
2019-04-14T06:40:31.997Z,16.67
2019-04-14T06:43:05.019Z,19.23
2019-04-14T06:45:40.174Z,36.77
2019-04-14T06:48:13.673Z,27.77
2019-04-14T06:50:53.937Z,26.50
2019-04-14T06:53:28.737Z,16.73
2019-04-14T06:56:04.525Z,31.97
2019-04-14T06:58:38.226Z,12.43
2019-04-14T07:01:12.317Z,21.30
2019-04-14T07:03:54.392Z,28.00
2019-04-14T07:06:29.527Z,42.73
2019-04-14T07:09:07.249Z,12.13
2019-04-14T07:11:41.625Z,23.40
2019-04-14T07:14:15.542Z,16.07
2019-04-14T07:17:07.830Z,7.90
2019-04-14T07:19:41.114Z,23.00
2019-04-14T07:22:14.607Z,16.10
2019-04-14T07:24:48.347Z,10.37
2019-04-14T07:27:27.294Z,16.60
2019-04-14T07:30:13.672Z,16.27
2019-04-14T07:33:15.773Z,22.67
2019-04-14T07:36:14.199Z,53.90
2019-04-14T07:39:09.130Z,45.13
2019-04-14T07:41:57.207Z,22.20
2019-04-14T07:44:49.645Z,32.03
2019-04-14T07:47:50.775Z,27.23
2019-04-14T07:50:56.682Z,21.57
2019-04-14T07:53:44.924Z,30.90
2019-04-14T07:57:03.733Z,20.13
2019-04-14T07:59:49.252Z,19.57
2019-04-14T08:03:10.745Z,13.87
2019-04-14T08:05:45.942Z,13.53
2019-04-14T08:08:19.884Z,6.60
2019-04-14T08:10:53.251Z,10.40
2019-04-14T08:13:28.166Z,20.03
2019-04-14T08:16:02.714Z,7.00
2019-04-14T08:18:36.660Z,11.67
2019-04-14T08:21:15.335Z,5.47
2019-04-14T08:23:55.899Z,16.90
2019-04-14T08:26:34.513Z,18.67
2019-04-14T08:29:13.941Z,7.77
2019-04-14T08:31:47.823Z,11.70
2019-04-14T08:34:24.178Z,6.47
2019-04-14T08:37:01.369Z,9.47
2019-04-14T08:39:43.946Z,24.30
2019-04-14T08:42:42.952Z,10.40
2019-04-14T08:45:34.069Z,15.37
2019-04-14T08:48:26.208Z,16.10
2019-04-14T08:51:37.638Z,17.43
2019-04-14T08:54:27.083Z,9.10
2019-04-14T08:57:29.455Z,14.70
2019-04-14T09:00:26.246Z,4.93
2019-04-14T09:03:20.195Z,18.50
2019-04-14T09:06:11.255Z,24.63
2019-04-14T09:09:13.031Z,14.13
2019-04-14T09:11:56.582Z,14.03
2019-04-14T09:14:38.675Z,24.23
2019-04-14T09:17:16.258Z,12.60
2019-04-14T09:19:50.080Z,17.57
2019-04-14T09:22:24.082Z,31.33
2019-04-14T09:24:58.749Z,9.67
2019-04-14T09:27:34.179Z,8.70
2019-04-14T09:30:09.126Z,15.33
2019-04-14T09:32:43.238Z,16.27
2019-04-14T09:35:17.740Z,7.77
2019-04-14T09:38:30.239Z,8.07
2019-04-14T09:41:04.462Z,14.53
2019-04-14T09:43:39.432Z,10.30
2019-04-14T09:46:12.886Z,5.50
2019-04-14T09:48:56.075Z,12.53
2019-04-14T09:51:31.786Z,11.87
2019-04-14T09:54:09.366Z,4.70
2019-04-14T09:56:49.527Z,29.90
2019-04-14T09:59:24.552Z,18.83
2019-04-14T10:02:06.397Z,24.63
2019-04-14T10:04:47.921Z,19.90
2019-04-14T10:07:22.443Z,10.40
2019-04-14T10:09:56.004Z,15.40
2019-04-14T10:12:34.776Z,7.87
2019-04-14T10:15:08.238Z,11.33
2019-04-14T10:17:44.647Z,16.40
2019-04-14T10:20:20.550Z,5.30
2019-04-14T10:22:54.861Z,8.20
2019-04-14T10:25:29.381Z,9.43
2019-04-14T10:28:04.274Z,13.07
2019-04-14T10:30:38.053Z,10.43
2019-04-14T10:33:11.530Z,3.07
2019-04-14T10:35:50.268Z,3.10
2019-04-14T10:38:32.297Z,4.33
2019-04-14T10:41:06.808Z,4.47
2019-04-14T10:43:40.531Z,8.90
2019-04-14T10:46:13.673Z,5.07
2019-04-14T10:48:47.623Z,5.50
2019-04-14T10:51:30.219Z,2.90
2019-04-14T10:54:02.288Z,7.07
2019-04-14T10:56:41.686Z,2.37
2019-04-14T10:59:21.325Z,3.97
2019-04-14T11:02:02.574Z,4.27
2019-04-14T11:04:42.459Z,7.73
2019-04-14T11:07:29.418Z,3.90
2019-04-14T11:10:09.815Z,3.20
2019-04-14T11:12:48.038Z,7.57
2019-04-14T11:15:21.740Z,5.80
2019-04-14T11:18:08.315Z,2.97
2019-04-14T11:20:46.025Z,4.43
2019-04-14T11:23:20.211Z,4.10
2019-04-14T11:26:04.944Z,6.87
2019-04-14T11:28:43.101Z,9.57
2019-04-14T11:31:58.496Z,5.40
2019-04-14T11:34:42.544Z,6.20
2019-04-14T11:37:40.947Z,7.37
2019-04-14T11:40:34.552Z,8.53
2019-04-14T11:43:10.524Z,6.83
2019-04-14T11:45:44.128Z,8.13
2019-04-14T11:48:18.124Z,8.97
2019-04-14T11:50:53.067Z,5.77
2019-04-14T11:53:27.058Z,8.53
2019-04-14T11:56:03.700Z,7.30
2019-04-14T11:58:37.492Z,7.40
2019-04-14T12:01:28.650Z,5.40
2019-04-14T12:04:27.474Z,8.07
2019-04-14T12:07:21.440Z,8.50
2019-04-14T12:10:09.276Z,10.53
2019-04-14T12:12:42.876Z,11.17
2019-04-14T12:15:16.905Z,7.57
2019-04-14T12:17:50.907Z,7.37
2019-04-14T12:20:26.268Z,7.37
2019-04-14T12:23:00.480Z,9.97
2019-04-14T12:25:33.406Z,10.67
2019-04-14T12:28:07.181Z,7.83
2019-04-14T12:30:41.957Z,4.40
2019-04-14T12:33:17.731Z,6.97
2019-04-14T12:35:54.350Z,9.03
2019-04-14T12:38:31.594Z,7.77
2019-04-14T12:41:08.279Z,7.57
2019-04-14T12:44:11.969Z,6.57
2019-04-14T12:47:04.334Z,12.17
2019-04-14T12:49:41.145Z,7.87
2019-04-14T12:52:26.366Z,6.17
2019-04-14T12:55:06.540Z,6.50
2019-04-14T12:57:52.268Z,9.57
2019-04-14T13:00:48.212Z,9.07
2019-04-14T13:03:24.731Z,9.17
2019-04-14T13:06:01.248Z,7.73
2019-04-14T13:08:35.066Z,7.97
2019-04-14T13:11:13.580Z,11.77
2019-04-14T13:13:54.046Z,9.40
2019-04-14T13:16:35.924Z,12.57
2019-04-14T13:19:14.532Z,11.53
2019-04-14T13:21:50.805Z,9.17
2019-04-14T13:24:24.779Z,15.17
2019-04-14T13:27:07.473Z,11.07
2019-04-14T13:29:42.294Z,8.10
2019-04-14T13:32:15.663Z,10.30
2019-04-14T13:34:53.289Z,15.20
2019-04-14T13:37:26.832Z,13.27
2019-04-14T13:40:01.277Z,11.43
2019-04-14T13:43:06.665Z,16.93
2019-04-14T13:45:46.949Z,32.80
2019-04-14T13:48:22.722Z,10.20
2019-04-14T13:51:01.360Z,12.30
2019-04-14T13:53:34.823Z,11.47
2019-04-14T13:56:49.056Z,16.83
2019-04-14T13:59:23.875Z,18.83
2019-04-14T14:01:57.808Z,20.37
2019-04-14T14:04:34.271Z,12.70
2019-04-14T14:07:08.712Z,9.37
2019-04-14T14:09:47.440Z,9.83
2019-04-14T14:12:37.433Z,12.60
2019-04-14T14:15:31.259Z,10.80
2019-04-14T14:18:30.572Z,10.90
2019-04-14T14:21:20.226Z,12.97
2019-04-14T14:24:13.386Z,10.70
2019-04-14T14:26:47.753Z,12.53
2019-04-14T14:29:21.611Z,9.30
2019-04-14T14:31:55.681Z,9.90
2019-04-14T14:34:29.360Z,10.57
2019-04-14T14:37:02.952Z,20.27
2019-04-14T14:39:40.006Z,9.90
2019-04-14T14:42:13.967Z,12.77
2019-04-14T14:45:05.573Z,8.57
2019-04-14T14:47:41.702Z,5.67
2019-04-14T14:50:23.869Z,4.70
2019-04-14T14:53:12.118Z,5.80
2019-04-14T14:55:41.014Z,5.03
2019-04-14T14:58:20.726Z,3.77
2019-04-14T15:00:57.432Z,4.10
2019-04-14T15:03:31.828Z,3.80
2019-04-14T15:06:06.814Z,4.73
2019-04-14T15:08:55.191Z,4.07
2019-04-14T15:12:00.631Z,10.40
2019-04-14T15:14:38.244Z,5.97
2019-04-14T15:17:18.697Z,8.27
2019-04-14T15:19:52.213Z,9.47
2019-04-14T15:22:26.446Z,11.43
2019-04-14T15:25:00.879Z,15.63
2019-04-14T15:27:35.741Z,12.17
2019-04-14T15:30:30.199Z,19.87
2019-04-14T15:33:04.342Z,23.43
2019-04-14T15:35:40.783Z,13.43
2019-04-14T15:38:16.431Z,9.53
2019-04-14T15:40:49.756Z,11.57
2019-04-14T15:43:22.986Z,21.67
2019-04-14T15:45:58.896Z,10.77
2019-04-14T15:48:35.698Z,29.77
2019-04-14T15:51:09.650Z,15.83
2019-04-14T15:53:44.038Z,30.50
2019-04-14T15:56:35.942Z,16.03
2019-04-14T15:59:17.554Z,15.80
2019-04-14T16:02:11.121Z,15.17
2019-04-14T16:05:13.402Z,22.97
2019-04-14T16:08:09.440Z,19.57
2019-04-14T16:11:09.117Z,34.30
2019-04-14T16:14:04.325Z,31.80
2019-04-14T16:17:10.086Z,27.50
2019-04-14T16:19:51.988Z,35.43
2019-04-14T16:22:25.662Z,22.23
2019-04-14T16:25:02.356Z,56.40
2019-04-14T16:27:59.136Z,50.53
2019-04-14T16:30:51.146Z,58.87
2019-04-14T16:33:41.302Z,38.57
2019-04-14T16:36:14.871Z,63.60
2019-04-14T16:38:50.018Z,50.27
2019-04-14T16:41:25.597Z,56.43
2019-04-14T16:43:59.422Z,36.37
2019-04-14T16:46:33.643Z,54.00
2019-04-14T16:49:10.980Z,48.77
2019-04-14T16:51:50.620Z,27.07
2019-04-14T16:54:38.245Z,23.93
2019-04-14T16:57:30.584Z,45.70
2019-04-14T17:00:06.181Z,34.00
2019-04-14T17:02:40.920Z,18.50
2019-04-14T17:05:14.618Z,8.67
2019-04-14T17:07:49.326Z,32.97
2019-04-14T17:10:24.025Z,22.93
2019-04-14T17:12:58.133Z,33.80
2019-04-14T17:15:51.706Z,25.67
2019-04-14T17:18:58.004Z,38.77
2019-04-14T17:21:47.312Z,28.33
2019-04-14T17:24:33.172Z,35.20
2019-04-14T17:27:37.768Z,25.70
2019-04-14T17:30:36.947Z,30.70
2019-04-14T17:33:34.508Z,27.70
2019-04-14T17:36:28.256Z,29.50
2019-04-14T17:39:13.642Z,66.07
2019-04-14T17:42:09.602Z,37.83
2019-04-14T17:45:03.279Z,48.00
2019-04-14T17:48:08.677Z,31.73
2019-04-14T17:51:03.933Z,22.63
2019-04-14T17:54:10.051Z,50.33
2019-04-14T17:56:55.751Z,42.03
2019-04-14T17:59:51.718Z,34.13
2019-04-14T18:02:45.602Z,28.23
2019-04-14T18:05:34.153Z,28.67
2019-04-14T18:08:27.465Z,41.50
2019-04-14T18:11:25.621Z,44.23
2019-04-14T18:14:09.113Z,27.73
2019-04-14T18:17:02.149Z,34.87
2019-04-14T18:19:45.988Z,26.27
2019-04-14T18:22:20.778Z,42.60
2019-04-14T18:24:55.100Z,35.17
2019-04-14T18:27:28.333Z,31.97
2019-04-14T18:30:23.679Z,36.70
2019-04-14T18:33:06.508Z,43.07
2019-04-14T18:35:52.419Z,43.80
2019-04-14T18:38:55.095Z,30.93
2019-04-14T18:41:42.242Z,45.00
2019-04-14T18:44:39.798Z,37.57
2019-04-14T18:47:32.715Z,39.80
2019-04-14T18:50:27.906Z,34.30
2019-04-14T18:53:18.535Z,43.87
2019-04-14T18:56:04.074Z,46.00
2019-04-14T18:59:03.045Z,37.20
2019-04-14T19:01:41.095Z,44.47
2019-04-14T19:04:15.009Z,30.37
2019-04-14T19:06:48.580Z,47.70
2019-04-14T19:09:23.241Z,32.67
2019-04-14T19:12:19.073Z,36.17
2019-04-14T19:15:22.201Z,33.43
2019-04-14T19:18:17.557Z,37.73
2019-04-14T19:20:56.448Z,30.80
2019-04-14T19:23:30.238Z,33.70
2019-04-14T19:26:10.273Z,27.60
2019-04-14T19:28:45.922Z,23.53
2019-04-14T19:31:25.426Z,30.83
2019-04-14T19:34:23.885Z,23.70
2019-04-14T19:36:57.514Z,30.33
2019-04-14T19:39:38.193Z,62.03
2019-04-14T19:42:12.504Z,51.57
2019-04-14T19:44:45.906Z,30.60
2019-04-14T19:47:20.144Z,34.77
2019-04-14T19:49:56.927Z,48.60
2019-04-14T19:52:34.179Z,37.83
2019-04-14T19:55:19.812Z,36.30
2019-04-14T19:57:47.588Z,32.33
2019-04-14T20:00:23.678Z,36.00
2019-04-14T20:03:00.877Z,33.07
2019-04-14T20:05:40.420Z,34.03
2019-04-14T20:08:16.708Z,36.60
2019-04-14T20:10:50.407Z,40.63
2019-04-14T20:13:25.008Z,42.20
2019-04-14T20:16:19.512Z,32.27
2019-04-14T20:19:17.454Z,35.80
2019-04-14T20:22:20.584Z,38.97
2019-04-14T20:25:01.032Z,29.30
2019-04-14T20:27:54.164Z,33.07
2019-04-14T20:30:38.945Z,30.20
2019-04-14T20:33:14.511Z,37.07
2019-04-14T20:35:48.344Z,38.07
2019-04-14T20:38:21.410Z,68.73
2019-04-14T20:40:55.385Z,68.93
2019-04-14T20:43:58.087Z,53.27
2019-04-14T20:46:33.783Z,43.53
2019-04-14T20:49:07.815Z,47.70
2019-04-14T20:51:41.508Z,49.77
2019-04-14T20:54:14.952Z,45.43
2019-04-14T20:56:49.556Z,34.93
2019-04-14T20:59:22.767Z,42.83
2019-04-14T21:02:06.380Z,38.20
2019-04-14T21:05:09.505Z,32.63
2019-04-14T21:08:01.668Z,33.53
2019-04-14T21:10:51.531Z,27.03
2019-04-14T21:13:46.117Z,34.10
2019-04-14T21:16:43.149Z,32.93
2019-04-14T21:19:22.770Z,42.33
2019-04-14T21:22:21.339Z,32.23
2019-04-14T21:25:13.373Z,28.83
2019-04-14T21:28:07.222Z,16.90
2019-04-14T21:31:01.980Z,22.67
2019-04-14T21:33:54.368Z,17.40
2019-04-14T21:36:36.304Z,21.03
2019-04-14T21:39:35.837Z,35.33
2019-04-14T21:42:09.709Z,28.67
2019-04-14T21:44:44.676Z,32.10
2019-04-14T21:47:18.991Z,35.13
2019-04-14T21:49:52.392Z,25.03
2019-04-14T21:52:41.303Z,31.23
2019-04-14T21:55:17.321Z,23.73
2019-04-14T21:58:16.167Z,21.60
2019-04-14T22:01:46.933Z,17.20
2019-04-14T22:04:40.289Z,30.83
2019-04-14T22:07:34.872Z,27.63
2019-04-14T22:10:30.046Z,23.63
2019-04-14T22:13:03.750Z,25.77
2019-04-14T22:15:37.509Z,27.27
2019-04-14T22:18:13.599Z,24.17
2019-04-14T22:20:47.159Z,21.93
2019-04-14T22:23:20.566Z,13.90
2019-04-14T22:25:54.708Z,15.97
2019-04-14T22:28:28.140Z,30.30
2019-04-14T22:31:01.795Z,31.77
2019-04-14T22:33:35.204Z,19.23
2019-04-14T22:36:09.386Z,21.23
2019-04-14T22:38:42.795Z,15.83
2019-04-14T22:41:16.369Z,25.23
2019-04-14T22:43:49.975Z,15.43
2019-04-14T22:46:24.318Z,19.67
2019-04-14T22:48:57.623Z,19.67
2019-04-14T22:51:31.623Z,18.80
2019-04-14T22:54:05.054Z,18.43
2019-04-14T22:56:40.457Z,15.97
2019-04-14T22:59:15.792Z,17.27
2019-04-14T23:01:52.769Z,9.63
2019-04-14T23:04:48.396Z,14.97
2019-04-14T23:07:57.732Z,20.07
2019-04-14T23:10:57.477Z,10.47
2019-04-14T23:13:54.637Z,16.63
2019-04-14T23:17:00.684Z,30.30
2019-04-14T23:19:39.538Z,14.37
2019-04-14T23:22:31.354Z,17.17
2019-04-14T23:25:06.569Z,12.60
2019-04-14T23:27:39.814Z,29.90
2019-04-14T23:30:14.085Z,16.53
2019-04-14T23:32:48.611Z,18.63
2019-04-14T23:35:23.570Z,12.03
2019-04-14T23:37:56.674Z,19.07
2019-04-14T23:40:30.793Z,17.37
2019-04-14T23:43:06.139Z,21.57
2019-04-14T23:45:43.931Z,20.87
2019-04-14T23:48:18.989Z,20.93
2019-04-14T23:50:52.494Z,16.50
2019-04-14T23:53:25.599Z,10.83
2019-04-14T23:55:59.122Z,11.67
2019-04-14T23:58:32.795Z,12.53
